Oakland, CA (94605)

7:18 AM PDT on March 27, 2015 (GMT -0700)
Eastmont Hills | | Change Station
CLOSE
Current Station
Personal Weather Station
Location: Oakland, CA
Elevation: 423 ft
Nearby Weather Stations

Elev 423 ft 37.77 °N, 122.16 °W | Updated 8 seconds ago

Partly Cloudy
Partly Cloudy
49.8 °F
Feels Like 50 °F
N
1.0
Wind Variable Wind from ESE
Gusts 1.0 mph

Today
High -- | Low -- °F
--% Chance of Precip.
Yesterday
High -- | Low -- °F
Precip. -- in
7:01 AM 7:26 PM
First Quarter, 53% visible
Pressure 30.11 in
Visibility 10.0 miles
Clouds Few 200 ft
Windchill 50 °F
Dew Point 48 °F
Humidity 93%
Rainfall 0.00 in
Snow Depth Not available.
UV 0 out of 12
Pollen 8.30 out of 12
Air Quality Not available.
Flu Activity Not available.
METAR KOAK 271353Z 34003KT 10SM FEW002 11/10 A3011 RMK AO2 SLP196 T01110100

More Conditions Fewer Conditions

Pressure 30.11 in
Visibility 10.0 miles
Clouds Few 200 ft
Windchill 50 °F
Dew Point 48 °F
Humidity 93%
Rainfall 0.00 in
Snow Depth Not available.
UV 0 out of 12
Pollen 8.30 out of 12
Air Quality Not available.
Flu Activity Not available.
METAR KOAK 271353Z 34003KT 10SM FEW002 11/10 A3011 RMK AO2 SLP196 T01110100

More Conditions Fewer Conditions

10-Day Weather Forecast

Almanac

Astronomy

Mar. 27, 2015 Rise Set
Actual Time
Civil Twilight
Nautical Twilight
Astronomical Twilight
Moon
Length of Visible Light
Length of Day
Tomorrow will be .
, % of the Moon is Illuminated

Today's Extremes

State Highs State Lows

Community

WunderPhotos

Upload Photos

1,808,735 photos uploaded!

WunderBlogs® & News

Nearby

Air Quality

  Air Quality AQ Index Pollutant
Not available.

Snow Depth

Station Depth Elevation

Earthquake Activity

City Distance Mag. Time & Date
Minimum magnitude displayed is 2.5.

Coastal Water Temperatures

Place Temperature

Stations

Nearby Weather Stations

Station Location Temp. Windchill Dew Point Humidity Wind Precip. Elev Updated Type